Wetterdaten: Woche 24.07.23 - 30.07.23 (KW30)
Datum Zeit Temp. A. Feuchte A. Luftdruck Regen Wind Richtung Taupunkt Windchill
24.07.2023 00:00 20,4 C 59 % 1014 hPa 0,0 l/m 0,0 km/h (0 Bft) W 12,1 C 20,4 C
24.07.2023 01:00 19,6 C 61 % 1013 hPa 0,0 l/m 0,0 km/h (0 Bft) W 11,9 C 19,6 C
24.07.2023 02:00 18,9 C 64 % 1013 hPa 0,0 l/m 0,0 km/h (0 Bft) W 11,8 C 18,9 C
24.07.2023 03:00 18,5 C 65 % 1013 hPa 0,0 l/m 0,0 km/h (0 Bft) W 11,7 C 18,5 C
24.07.2023 04:00 18,1 C 66 % 1012 hPa 0,0 l/m 0,0 km/h (0 Bft) S-SO 11,7 C 18,1 C
24.07.2023 05:00 18,3 C 66 % 1012 hPa 0,0 l/m 0,0 km/h (0 Bft) SW 11,8 C 18,3 C
24.07.2023 06:00 19,0 C 64 % 1012 hPa 0,0 l/m 0,0 km/h (0 Bft) S-SW 12,0 C 19,0 C
24.07.2023 07:00 19,9 C 62 % 1012 hPa 0,0 l/m 2,0 km/h (1 Bft) SO 12,3 C 19,8 C
24.07.2023 08:00 21,2 C 59 % 1011 hPa 0,0 l/m 0,7 km/h (0 Bft) SW 12,9 C 21,2 C
24.07.2023 09:00 23,1 C 56 % 1011 hPa 0,0 l/m 1,1 km/h (1 Bft) SW 13,7 C 23,1 C
24.07.2023 10:00 24,3 C 53 % 1011 hPa 0,0 l/m 0,1 km/h (0 Bft) SW 14,0 C 24,3 C
24.07.2023 11:00 24,7 C 53 % 1010 hPa 0,0 l/m 3,5 km/h (1 Bft) S-SW 14,4 C 24,5 C
24.07.2023 12:00 26,3 C 51 % 1010 hPa 0,0 l/m 8,2 km/h (2 Bft) S-SO 15,2 C 25,7 C
24.07.2023 13:00 26,7 C 51 % 1010 hPa 0,0 l/m 4,5 km/h (1 Bft) SW 15,8 C 26,4 C
24.07.2023 14:00 27,3 C 50 % 1009 hPa 0,0 l/m 0,0 km/h (0 Bft) S-SW 15,8 C 27,3 C
24.07.2023 15:00 26,9 C 49 % 1008 hPa 0,0 l/m 9,0 km/h (2 Bft) S-SO 15,1 C 26,2 C
24.07.2023 16:00 26,9 C 52 % 1007 hPa 0,0 l/m 3,9 km/h (1 Bft) S-SW 16,2 C 26,7 C
24.07.2023 17:00 26,8 C 51 % 1007 hPa 0,0 l/m 4,5 km/h (1 Bft) S-SW 15,8 C 26,5 C
24.07.2023 18:00 26,0 C 50 % 1006 hPa 0,0 l/m 1,0 km/h (0 Bft) O 14,8 C 26,0 C
24.07.2023 19:00 20,6 C 62 % 1008 hPa 0,0 l/m 2,1 km/h (1 Bft) N-NW 13,0 C 20,4 C
24.07.2023 20:00 16,1 C 79 % 1008 hPa 3,1 l/m 0,0 km/h (0 Bft) S-SW 12,3 C 16,1 C
24.07.2023 21:00 15,7 C 83 % 1009 hPa 0,0 l/m 0,0 km/h (0 Bft) S-SW 12,7 C 15,7 C
24.07.2023 22:00 15,4 C 85 % 1009 hPa 0,0 l/m 0,0 km/h (0 Bft) W-SW 12,9 C 15,4 C
24.07.2023 23:00 15,3 C 87 % 1009 hPa 0,0 l/m 0,0 km/h (0 Bft) W-SW 13,1 C 15,3 C
25.07.2023 00:00 15,0 C 87 % 1010 hPa 0,0 l/m 0,0 km/h (0 Bft) S-SO 12,8 C 15,0 C
25.07.2023 01:00 14,5 C 87 % 1010 hPa 0,0 l/m 0,0 km/h (0 Bft) W-SW 12,4 C 14,5 C
25.07.2023 02:00 14,5 C 87 % 1010 hPa 0,0 l/m 0,0 km/h (0 Bft) S-SW 12,4 C 14,5 C
25.07.2023 03:00 13,9 C 87 % 1010 hPa 0,0 l/m 0,0 km/h (0 Bft) W-NW 11,8 C 13,9 C
25.07.2023 04:00 13,3 C 88 % 1010 hPa 0,0 l/m 0,0 km/h (0 Bft) W 11,2 C 13,3 C
25.07.2023 05:00 12,8 C 88 % 1010 hPa 0,0 l/m 0,0 km/h (0 Bft) SW 10,8 C 12,8 C
25.07.2023 06:00 12,8 C 88 % 1009 hPa 0,0 l/m 0,0 km/h (0 Bft) W-NW 10,8 C 12,8 C
25.07.2023 07:00 13,6 C 88 % 1010 hPa 0,0 l/m 0,0 km/h (0 Bft) W-SW 11,7 C 13,6 C
25.07.2023 08:00 15,3 C 88 % 1010 hPa 0,0 l/m 0,0 km/h (0 Bft) W-NW 13,3 C 15,3 C
25.07.2023 09:00 16,8 C 84 % 1010 hPa 0,0 l/m 0,0 km/h (0 Bft) NW 14,0 C 16,8 C
25.07.2023 10:00 16,6 C 82 % 1010 hPa 0,0 l/m 0,0 km/h (0 Bft) S 13,5 C 16,6 C
25.07.2023 11:00 16,3 C 84 % 1010 hPa 0,5 l/m 0,0 km/h (0 Bft) SO 13,5 C 16,3 C
25.07.2023 12:00 16,4 C 85 % 1010 hPa 0,5 l/m 0,0 km/h (0 Bft) SO 13,9 C 16,4 C
25.07.2023 13:00 15,8 C 86 % 1009 hPa 1,6 l/m 0,0 km/h (0 Bft) SO 13,6 C 15,8 C
25.07.2023 14:00 15,7 C 87 % 1009 hPa 0,5 l/m 0,0 km/h (0 Bft) O-NO 13,6 C 15,7 C
25.07.2023 15:00 15,0 C 89 % 1009 hPa 2,1 l/m 1,6 km/h (1 Bft) N 13,1 C 15,0 C
25.07.2023 16:00 14,0 C 91 % 1010 hPa 4,1 l/m 4,6 km/h (1 Bft) N 12,5 C 13,2 C
25.07.2023 17:00 13,3 C 92 % 1010 hPa 3,1 l/m 6,1 km/h (2 Bft) N 12,0 C 11,8 C
25.07.2023 18:00 13,7 C 92 % 1011 hPa 0,0 l/m 1,4 km/h (1 Bft) NW 12,4 C 13,7 C
25.07.2023 19:00 13,7 C 92 % 1011 hPa 0,0 l/m 0,0 km/h (0 Bft) N-NW 12,4 C 13,7 C
25.07.2023 20:00 13,2 C 92 % 1011 hPa 0,0 l/m 0,0 km/h (0 Bft) N-NW 12,0 C 13,2 C
25.07.2023 21:00 13,0 C 92 % 1012 hPa 0,0 l/m 0,0 km/h (0 Bft) N-NW 11,7 C 13,0 C
25.07.2023 22:00 12,5 C 92 % 1013 hPa 0,0 l/m 0,0 km/h (0 Bft) N-NW 11,3 C 12,5 C
25.07.2023 23:00 12,4 C 92 % 1013 hPa 0,0 l/m 0,0 km/h (0 Bft) N-NW 11,1 C 12,4 C
26.07.2023 00:00 12,4 C 92 % 1014 hPa 0,0 l/m 0,0 km/h (0 Bft) N-NW 11,1 C 12,4 C
26.07.2023 01:00 12,3 C 92 % 1014 hPa 0,0 l/m 0,0 km/h (0 Bft) N-NW 11,1 C 12,3 C
26.07.2023 02:00 12,3 C 92 % 1014 hPa 0,0 l/m 0,0 km/h (0 Bft) N-NW 11,0 C 12,3 C
26.07.2023 03:00 12,0 C 92 % 1015 hPa 0,0 l/m 0,0 km/h (0 Bft) N-NW 10,8 C 12,0 C
26.07.2023 04:00 11,8 C 93 % 1015 hPa 0,0 l/m 0,0 km/h (0 Bft) NW 10,7 C 11,8 C
26.07.2023 05:00 11,5 C 93 % 1016 hPa 0,0 l/m 0,0 km/h (0 Bft) NW 10,4 C 11,5 C
26.07.2023 06:00 11,1 C 93 % 1016 hPa 0,0 l/m 0,0 km/h (0 Bft) NW 10,0 C 11,1 C
26.07.2023 07:00 11,6 C 93 % 1017 hPa 0,0 l/m 0,0 km/h (0 Bft) W-SW 10,5 C 11,6 C
26.07.2023 08:00 12,8 C 93 % 1017 hPa 0,0 l/m 0,0 km/h (0 Bft) W-NW 11,7 C 12,8 C
26.07.2023 09:00 14,2 C 90 % 1017 hPa 0,0 l/m 0,0 km/h (0 Bft) N-NW 12,5 C 14,2 C
26.07.2023 10:00 15,7 C 83 % 1017 hPa 0,0 l/m 0,7 km/h (0 Bft) W 12,7 C 15,7 C
26.07.2023 11:00 16,6 C 76 % 1017 hPa 0,0 l/m 0,7 km/h (0 Bft) W-SW 12,4 C 16,6 C
26.07.2023 12:00 15,8 C 74 % 1017 hPa 0,0 l/m 1,8 km/h (1 Bft) N-NW 11,2 C 15,5 C
26.07.2023 13:00 13,0 C 83 % 1017 hPa 0,0 l/m 0,0 km/h (0 Bft) W 10,1 C 13,0 C
26.07.2023 14:00 16,9 C 76 % 1017 hPa 0,0 l/m 0,0 km/h (0 Bft) W-SW 12,6 C 16,9 C
26.07.2023 15:00 19,1 C 68 % 1017 hPa 0,0 l/m 0,2 km/h (0 Bft) NW 12,9 C 19,1 C
26.07.2023 16:00 21,0 C 61 % 1017 hPa 0,0 l/m 0,0 km/h (0 Bft) W 13,1 C 21,0 C
26.07.2023 17:00 20,2 C 59 % 1017 hPa 0,0 l/m 0,0 km/h (0 Bft) S-SW 11,9 C 20,2 C
26.07.2023 18:00 19,8 C 58 % 1017 hPa 0,0 l/m 1,0 km/h (0 Bft) W 11,2 C 19,8 C
26.07.2023 19:00 18,4 C 59 % 1017 hPa 0,0 l/m 1,9 km/h (1 Bft) W-NW 10,2 C 18,0 C
26.07.2023 20:00 16,8 C 62 % 1018 hPa 0,0 l/m 0,0 km/h (0 Bft) W 9,5 C 16,8 C
26.07.2023 21:00 15,3 C 66 % 1018 hPa 0,0 l/m 0,0 km/h (0 Bft) W-NW 8,9 C 15,3 C
26.07.2023 22:00 13,7 C 70 % 1019 hPa 0,0 l/m 0,0 km/h (0 Bft) W-NW 8,3 C 13,7 C
26.07.2023 23:00 13,3 C 73 % 1019 hPa 0,0 l/m 0,0 km/h (0 Bft) W-SW 8,5 C 13,3 C
27.07.2023 00:00 12,6 C 76 % 1019 hPa 0,0 l/m 0,0 km/h (0 Bft) S 8,4 C 12,6 C
27.07.2023 01:00 12,5 C 78 % 1019 hPa 0,0 l/m 0,0 km/h (0 Bft) S 8,6 C 12,5 C
27.07.2023 02:00 12,1 C 79 % 1019 hPa 0,0 l/m 0,0 km/h (0 Bft) S 8,6 C 12,1 C
27.07.2023 03:00 11,6 C 81 % 1018 hPa 0,0 l/m 0,0 km/h (0 Bft) S-SW 8,4 C 11,6 C
27.07.2023 04:00 11,4 C 83 % 1018 hPa 0,0 l/m 0,0 km/h (0 Bft) S-SW 8,5 C 11,4 C
27.07.2023 05:00 11,5 C 83 % 1018 hPa 0,0 l/m 0,0 km/h (0 Bft) S-SW 8,7 C 11,5 C
27.07.2023 06:00 11,9 C 84 % 1017 hPa 0,0 l/m 0,0 km/h (0 Bft) S-SW 9,2 C 11,9 C
27.07.2023 07:00 13,1 C 83 % 1017 hPa 0,0 l/m 0,0 km/h (0 Bft) S-SO 10,2 C 13,1 C
27.07.2023 08:00 14,9 C 80 % 1017 hPa 0,0 l/m 0,0 km/h (0 Bft) NO 11,4 C 14,9 C
27.07.2023 09:00 16,3 C 76 % 1016 hPa 0,0 l/m 1,6 km/h (1 Bft) S-SO 12,0 C 16,0 C
27.07.2023 10:00 17,7 C 71 % 1016 hPa 0,0 l/m 1,1 km/h (1 Bft) SW 12,5 C 17,7 C
27.07.2023 11:00 18,0 C 72 % 1016 hPa 0,0 l/m 0,1 km/h (0 Bft) S-SO 12,8 C 18,0 C
27.07.2023 12:00 15,7 C 80 % 1015 hPa 0,5 l/m 0,0 km/h (0 Bft) S 12,2 C 15,7 C
27.07.2023 13:00 15,9 C 84 % 1014 hPa 0,5 l/m 2,1 km/h (1 Bft) S-SO 13,2 C 15,4 C
27.07.2023 14:00 15,9 C 85 % 1013 hPa 0,0 l/m 2,5 km/h (1 Bft) S-SO 13,4 C 15,8 C
27.07.2023 15:00 16,9 C 83 % 1013 hPa 0,0 l/m 6,1 km/h (2 Bft) SW 14,0 C 15,7 C
27.07.2023 16:00 16,2 C 84 % 1012 hPa 0,0 l/m 3,0 km/h (1 Bft) SW 13,5 C 15,7 C
27.07.2023 17:00 16,5 C 85 % 1012 hPa 0,0 l/m 1,0 km/h (0 Bft) SW 13,9 C 16,5 C
27.07.2023 18:00 17,1 C 84 % 1012 hPa 0,0 l/m 0,1 km/h (0 Bft) SW 14,4 C 17,1 C
27.07.2023 19:00 16,9 C 84 % 1012 hPa 0,0 l/m 1,3 km/h (1 Bft) SW 14,2 C 16,8 C
27.07.2023 20:00 16,2 C 86 % 1012 hPa 0,5 l/m 0,0 km/h (0 Bft) S-SO 13,7 C 16,2 C
27.07.2023 21:00 15,5 C 88 % 1012 hPa 0,0 l/m 0,0 km/h (0 Bft) S-SW 13,5 C 15,5 C
27.07.2023 22:00 15,5 C 90 % 1012 hPa 0,0 l/m 0,0 km/h (0 Bft) SW 13,8 C 15,5 C
27.07.2023 23:00 15,7 C 90 % 1012 hPa 0,5 l/m 0,0 km/h (0 Bft) S-SW 14,1 C 15,7 C
28.07.2023 00:00 15,9 C 91 % 1011 hPa 0,0 l/m 0,0 km/h (0 Bft) S-SW 14,5 C 15,9 C
28.07.2023 01:00 16,2 C 91 % 1011 hPa 0,0 l/m 0,0 km/h (0 Bft) SW 14,8 C 16,2 C
28.07.2023 02:00 16,2 C 91 % 1011 hPa 0,0 l/m 0,0 km/h (0 Bft) SW 14,8 C 16,2 C
28.07.2023 03:00 15,9 C 92 % 1011 hPa 1,0 l/m 0,0 km/h (0 Bft) W-SW 14,6 C 15,9 C
28.07.2023 04:00 15,6 C 92 % 1011 hPa 0,0 l/m 0,0 km/h (0 Bft) SW 14,3 C 15,6 C
28.07.2023 05:00 15,6 C 92 % 1011 hPa 0,0 l/m 0,0 km/h (0 Bft) S-SW 14,3 C 15,6 C
28.07.2023 06:00 15,6 C 93 % 1011 hPa 0,5 l/m 0,0 km/h (0 Bft) W-SW 14,5 C 15,6 C
28.07.2023 07:00 16,0 C 93 % 1012 hPa 0,5 l/m 0,0 km/h (0 Bft) SW 14,9 C 16,0 C
28.07.2023 08:00 16,7 C 93 % 1012 hPa 0,0 l/m 0,0 km/h (0 Bft) W 15,6 C 16,7 C
28.07.2023 09:00 18,1 C 93 % 1012 hPa 0,0 l/m 1,3 km/h (1 Bft) W 16,9 C 18,1 C
28.07.2023 10:00 19,7 C 90 % 1012 hPa 0,0 l/m 0,0 km/h (0 Bft) W-SW 17,9 C 19,7 C
28.07.2023 11:00 21,0 C 84 % 1013 hPa 0,0 l/m 0,0 km/h (0 Bft) W 18,2 C 21,0 C
28.07.2023 12:00 22,1 C 78 % 1013 hPa 0,0 l/m 0,0 km/h (0 Bft) W 18,1 C 22,1 C
28.07.2023 13:00 23,3 C 73 % 1013 hPa 0,0 l/m 1,0 km/h (0 Bft) SW 18,1 C 23,3 C
28.07.2023 14:00 24,7 C 68 % 1013 hPa 0,0 l/m 0,1 km/h (0 Bft) W-NW 18,2 C 24,7 C
28.07.2023 15:00 24,9 C 65 % 1014 hPa 0,0 l/m 1,0 km/h (0 Bft) SW 17,8 C 24,9 C
28.07.2023 16:00 25,5 C 64 % 1014 hPa 0,0 l/m 0,0 km/h (0 Bft) W 18,2 C 25,5 C
28.07.2023 17:00 26,3 C 61 % 1014 hPa 0,0 l/m 0,0 km/h (0 Bft) W-SW 18,1 C 26,3 C
28.07.2023 18:00 25,0 C 62 % 1014 hPa 0,0 l/m 0,0 km/h (0 Bft) W 17,2 C 25,0 C
28.07.2023 19:00 23,8 C 64 % 1014 hPa 0,0 l/m 0,0 km/h (0 Bft) SW 16,7 C 23,8 C
28.07.2023 20:00 22,8 C 67 % 1014 hPa 0,0 l/m 0,0 km/h (0 Bft) W 16,3 C 22,8 C
28.07.2023 21:00 21,3 C 72 % 1015 hPa 0,0 l/m 0,0 km/h (0 Bft) W-SW 16,0 C 21,3 C
28.07.2023 22:00 20,6 C 75 % 1015 hPa 0,0 l/m 0,0 km/h (0 Bft) SW 16,0 C 20,6 C
28.07.2023 23:00 20,0 C 77 % 1015 hPa 0,0 l/m 0,0 km/h (0 Bft) W-SW 15,9 C 20,0 C
29.07.2023 00:00 19,4 C 80 % 1015 hPa 0,0 l/m 0,0 km/h (0 Bft) SW 15,7 C 19,4 C
29.07.2023 01:00 19,0 C 81 % 1015 hPa 0,0 l/m 0,0 km/h (0 Bft) SW 15,7 C 19,0 C
29.07.2023 02:00 18,4 C 83 % 1015 hPa 0,0 l/m 0,0 km/h (0 Bft) SW 15,5 C 18,4 C
29.07.2023 03:00 18,2 C 85 % 1015 hPa 0,0 l/m 0,0 km/h (0 Bft) S-SW 15,7 C 18,2 C
29.07.2023 04:00 18,1 C 85 % 1015 hPa 0,0 l/m 0,0 km/h (0 Bft) SW 15,5 C 18,1 C
29.07.2023 05:00 17,2 C 86 % 1014 hPa 0,0 l/m 0,0 km/h (0 Bft) SW 14,8 C 17,2 C
29.07.2023 06:00 16,8 C 88 % 1014 hPa 0,0 l/m 0,0 km/h (0 Bft) W-NW 14,7 C 16,8 C
29.07.2023 07:00 17,5 C 88 % 1014 hPa 0,0 l/m 0,0 km/h (0 Bft) SW 15,5 C 17,5 C
29.07.2023 08:00 19,7 C 85 % 1014 hPa 0,0 l/m 0,0 km/h (0 Bft) S 17,1 C 19,7 C
29.07.2023 09:00 20,9 C 80 % 1014 hPa 0,0 l/m 0,1 km/h (0 Bft) SW 17,2 C 20,9 C
29.07.2023 10:00 22,0 C 78 % 1014 hPa 0,0 l/m 0,1 km/h (0 Bft) SW 17,9 C 22,0 C
29.07.2023 11:00 22,2 C 76 % 1014 hPa 0,0 l/m 0,6 km/h (0 Bft) SW 17,7 C 22,2 C
29.07.2023 12:00 22,6 C 74 % 1014 hPa 0,0 l/m 2,6 km/h (1 Bft) S 17,8 C 22,5 C
29.07.2023 13:00 23,0 C 74 % 1014 hPa 0,0 l/m 0,0 km/h (0 Bft) SW 18,0 C 23,0 C
29.07.2023 14:00 24,6 C 68 % 1013 hPa 0,0 l/m 3,8 km/h (1 Bft) S-SW 18,1 C 24,1 C
29.07.2023 15:00 25,4 C 62 % 1012 hPa 0,0 l/m 3,5 km/h (1 Bft) SW 17,5 C 25,1 C
29.07.2023 16:00 24,3 C 61 % 1013 hPa 0,0 l/m 0,9 km/h (0 Bft) W 16,3 C 24,3 C
29.07.2023 17:00 18,7 C 78 % 1014 hPa 3,6 l/m 0,0 km/h (0 Bft) SW 14,8 C 18,7 C
29.07.2023 18:00 18,2 C 85 % 1014 hPa 0,0 l/m 0,0 km/h (0 Bft) S 15,6 C 18,2 C
29.07.2023 19:00 18,7 C 85 % 1014 hPa 0,0 l/m 0,0 km/h (0 Bft) S 16,1 C 18,7 C
29.07.2023 20:00 18,5 C 84 % 1014 hPa 0,0 l/m 0,0 km/h (0 Bft) S-SO 15,7 C 18,5 C
29.07.2023 21:00 17,7 C 83 % 1015 hPa 0,0 l/m 0,0 km/h (0 Bft) S-SO 14,8 C 17,7 C
29.07.2023 22:00 16,9 C 85 % 1015 hPa 0,0 l/m 0,0 km/h (0 Bft) S-SO 14,3 C 16,9 C
29.07.2023 23:00 16,3 C 86 % 1015 hPa 0,0 l/m 0,0 km/h (0 Bft) S-SO 13,9 C 16,3 C
30.07.2023 00:00 16,0 C 87 % 1015 hPa 0,0 l/m 0,0 km/h (0 Bft) S-SO 13,7 C 16,0 C
30.07.2023 01:00 15,9 C 88 % 1015 hPa 1,0 l/m 0,0 km/h (0 Bft) S-SO 13,9 C 15,9 C
30.07.2023 02:00 15,6 C 89 % 1015 hPa 0,5 l/m 0,0 km/h (0 Bft) S-SO 13,7 C 15,6 C
30.07.2023 03:00 15,6 C 90 % 1015 hPa 0,0 l/m 0,0 km/h (0 Bft) SO 13,9 C 15,6 C
30.07.2023 04:00 15,3 C 90 % 1015 hPa 0,0 l/m 0,0 km/h (0 Bft) SO 13,7 C 15,3 C
30.07.2023 05:00 15,2 C 91 % 1015 hPa 0,0 l/m 0,0 km/h (0 Bft) SO 13,7 C 15,2 C
30.07.2023 06:00 15,0 C 91 % 1016 hPa 0,0 l/m 0,0 km/h (0 Bft) SO 13,6 C 15,0 C
30.07.2023 07:00 15,6 C 91 % 1016 hPa 0,0 l/m 0,0 km/h (0 Bft) SO 14,2 C 15,6 C
30.07.2023 08:00 17,1 C 92 % 1016 hPa 0,0 l/m 0,0 km/h (0 Bft) S-SW 15,7 C 17,1 C
30.07.2023 09:00 19,1 C 90 % 1016 hPa 0,0 l/m 0,0 km/h (0 Bft) W-SW 17,4 C 19,1 C
30.07.2023 10:00 20,3 C 81 % 1016 hPa 0,0 l/m 0,0 km/h (0 Bft) W-SW 17,0 C 20,3 C
30.07.2023 11:00 21,7 C 72 % 1016 hPa 0,0 l/m 0,2 km/h (0 Bft) W 16,4 C 21,7 C
30.07.2023 12:00 23,9 C 64 % 1016 hPa 0,0 l/m 0,2 km/h (0 Bft) W 16,6 C 23,9 C
30.07.2023 13:00 25,4 C 58 % 1016 hPa 0,0 l/m 0,0 km/h (0 Bft) SW 16,4 C 25,4 C
30.07.2023 14:00 23,9 C 59 % 1016 hPa 0,5 l/m 0,4 km/h (0 Bft) SW 15,3 C 23,9 C
30.07.2023 15:00 21,5 C 72 % 1016 hPa 0,0 l/m 0,0 km/h (0 Bft) SW 16,2 C 21,5 C
30.07.2023 16:00 18,6 C 75 % 1017 hPa 3,6 l/m 1,8 km/h (1 Bft) W-NW 14,0 C 18,5 C
30.07.2023 17:00 15,6 C 87 % 1018 hPa 0,0 l/m 0,0 km/h (0 Bft) SW 13,3 C 15,6 C
30.07.2023 18:00 17,4 C 84 % 1018 hPa 0,0 l/m 0,7 km/h (0 Bft) W 14,7 C 17,4 C
30.07.2023 19:00 17,8 C 80 % 1018 hPa 0,0 l/m 2,0 km/h (1 Bft) W-SW 14,2 C 17,4 C
30.07.2023 20:00 17,3 C 77 % 1018 hPa 0,0 l/m 0,0 km/h (0 Bft) W 13,2 C 17,3 C
30.07.2023 21:00 16,2 C 77 % 1019 hPa 0,0 l/m 0,0 km/h (0 Bft) W-SW 12,1 C 16,2 C
30.07.2023 22:00 15,3 C 77 % 1019 hPa 0,0 l/m 0,0 km/h (0 Bft) W-SW 11,4 C 15,3 C
30.07.2023 23:00 14,4 C 79 % 1019 hPa 0,0 l/m 0,0 km/h (0 Bft) W-SW 10,8 C 14,4 C
Min-Datum _ 26.07.23 24.07.23 24.07.23 - 30.07.23 - 26.07.23 25.07.23
_ Min-Zeit 06:22 15:02 18:22 - 23:02 - 22:22 17:02
Minimum _ 11,1 C 48 % 1006 hPa - 0,0 km/h (0 Bft) - 8,0 C 9,9 C
Max-Datum _ 24.07.23 28.07.23 30.07.23 25.07.23 29.07.23 - 28.07.23 24.07.23
_ Max-Zeit 14:22 08:32 23:02 16:22 14:42 - 16:52 14:22
Maximum _ 27,6 C 94 % 1019 hPa 4,1 l/m 22,3 km/h
S-SW (4 Bft)
- 18,8 C 27,6 C
Durchschnitt _ 17,6 C 79 % 1014 hPa #29,0 l/m 0,6 km/h (0 Bft) SW 13,6 C 17,6 C